Time;durP1;ratioP1;P1;durP2;ratioP2;P2;SDS_P1;SDS_P2;PMS_P1;PMS_P2;Temp;Humidity;BMP_temperature;BMP_pressure;BME280_temperature;BME280_humidity;BME280_pressure;Samples;Min_cycle;Max_cycle;Signal;HPM_P1;HPM_P2
2022/03/12 00:02:22;;;;;;;21.40;14.15;;;7.30;42.90;;;;;;5055280;28;20256;-58
2022/03/12 00:04:49;;;;;;;17.83;15.75;;;7.30;42.90;;;;;;5055309;28;20237;-58
2022/03/12 00:07:16;;;;;;;16.88;14.77;;;7.30;42.90;;;;;;5053977;28;20201;-58
2022/03/12 00:09:43;;;;;;;18.45;16.00;;;7.20;43.90;;;;;;5055225;28;20627;-58
2022/03/12 00:12:13;;;;;;;20.02;16.45;;;7.10;43.00;;;;;;5054898;28;20564;-58
2022/03/12 00:14:40;;;;;;;18.50;15.48;;;7.10;43.20;;;;;;5055252;28;20228;-58
2022/03/12 00:17:07;;;;;;;18.50;15.95;;;7.00;43.20;;;;;;5054974;28;20212;-58
2022/03/12 00:19:36;;;;;;;17.60;15.23;;;6.90;43.80;;;;;;5055114;28;20198;-58
2022/03/12 00:22:06;;;;;;;19.73;15.93;;;6.70;45.30;;;;;;5053491;28;20320;-58
2022/03/12 00:24:34;;;;;;;20.67;16.00;;;6.80;44.40;;;;;;5054968;28;20206;-58
2022/03/12 00:27:01;;;;;;;19.42;14.25;;;6.80;44.30;;;;;;5054820;28;20201;-58
2022/03/12 00:29:28;;;;;;;18.92;15.65;;;6.90;44.70;;;;;;5054633;28;20541;-58
2022/03/12 00:31:55;;;;;;;17.15;15.32;;;6.80;45.10;;;;;;5054962;28;20205;-58
2022/03/12 00:34:22;;;;;;;21.77;17.65;;;6.80;44.50;;;;;;5054719;28;20201;-58
2022/03/12 00:36:50;;;;;;;18.90;14.88;;;6.80;44.20;;;;;;5053283;28;20680;-58
2022/03/12 00:39:17;;;;;;;23.00;16.25;;;6.80;44.40;;;;;;5054762;28;20211;-58
2022/03/12 00:41:44;;;;;;;17.10;15.40;;;6.70;45.40;;;;;;5054503;28;20642;-58
2022/03/12 00:44:13;;;;;;;18.70;16.17;;;6.50;46.40;;;;;;5054447;28;20201;-58
2022/03/12 00:46:40;;;;;;;16.50;14.80;;;6.20;46.90;;;;;;5054476;28;20211;-57
2022/03/12 00:49:07;;;;;;;16.65;15.00;;;6.00;46.60;;;;;;5054472;28;20206;-58
2022/03/12 00:51:34;;;;;;;18.75;15.50;;;6.00;46.60;;;;;;5053872;28;20547;-59
2022/03/12 00:54:02;;;;;;;18.20;15.30;;;6.10;46.30;;;;;;5053904;28;20201;-58
2022/03/12 00:56:29;;;;;;;16.80;15.07;;;6.10;46.30;;;;;;5054349;28;20235;-58
2022/03/12 00:58:57;;;;;;;16.42;14.73;;;6.00;46.20;;;;;;5053560;28;20272;-58
2022/03/12 01:01:26;;;;;;;30.63;17.60;;;6.00;46.10;;;;;;5054363;28;20204;-58
2022/03/12 01:03:53;;;;;;;16.20;14.38;;;6.00;46.30;;;;;;5054159;28;20229;-57
2022/03/12 01:06:20;;;;;;;18.58;16.50;;;5.90;47.00;;;;;;5054134;28;20205;-58
2022/03/12 01:08:47;;;;;;;20.40;15.40;;;5.80;47.70;;;;;;5052786;28;20233;-58
2022/03/12 01:11:16;;;;;;;16.55;14.77;;;5.70;47.00;;;;;;5053982;28;20208;-58
2022/03/12 01:16:24;;;;;;;16.90;14.68;;;5.90;46.40;;;;;;5052653;28;20210;-58
2022/03/12 01:18:51;;;;;;;17.92;14.57;;;5.90;46.30;;;;;;5053961;28;20574;-58
2022/03/12 01:21:20;;;;;;;16.92;15.20;;;6.00;45.80;;;;;;5053741;28;20240;-58
2022/03/12 01:23:47;;;;;;;16.15;14.43;;;6.10;45.60;;;;;;5052289;28;20240;-58
2022/03/12 01:26:17;;;;;;;20.20;15.93;;;6.10;45.30;;;;;;5053832;28;20211;-58
2022/03/12 01:28:45;;;;;;;16.45;14.48;;;6.10;45.40;;;;;;5053689;28;20252;-58
2022/03/12 01:31:12;;;;;;;15.77;13.82;;;6.00;45.50;;;;;;5053736;28;20284;-58
2022/03/12 01:33:39;;;;;;;19.00;16.52;;;5.90;45.70;;;;;;5053711;28;20382;-58
2022/03/12 01:36:07;;;;;;;20.42;14.80;;;5.90;45.80;;;;;;5053556;28;20296;-58
2022/03/12 01:38:35;;;;;;;17.20;14.75;;;5.90;45.60;;;;;;5052234;28;20212;-58
2022/03/12 01:41:04;;;;;;;18.00;15.38;;;5.90;45.80;;;;;;5053378;28;20224;-58
2022/03/12 01:43:37;;;;;;;17.50;14.95;;;5.80;45.90;;;;;;5053226;28;20328;-58
2022/03/12 01:46:10;;;;;;;16.42;14.40;;;5.70;46.10;;;;;;5053342;28;20626;-58
2022/03/12 01:48:41;;;;;;;17.23;14.10;;;5.50;46.30;;;;;;5053255;28;20235;-58
2022/03/12 01:51:08;;;;;;;16.23;13.38;;;5.50;46.60;;;;;;5053275;28;20205;-58
2022/03/12 01:53:36;;;;;;;16.15;13.63;;;5.30;46.70;;;;;;5052057;28;20692;-59
2022/03/12 01:56:03;;;;;;;17.02;15.30;;;5.20;47.00;;;;;;5053221;28;20201;-58
2022/03/12 01:58:30;;;;;;;15.70;14.10;;;5.10;47.10;;;;;;5053010;28;20577;-59
2022/03/12 02:00:58;;;;;;;15.30;13.70;;;5.00;47.20;;;;;;5053066;28;20201;-58
2022/03/12 02:03:28;;;;;;;16.17;14.43;;;4.90;47.30;;;;;;5052968;28;20239;-59
2022/03/12 02:05:56;;;;;;;19.80;14.57;;;4.80;47.40;;;;;;5053055;28;20206;-58
2022/03/12 02:08:23;;;;;;;15.98;13.48;;;4.80;47.60;;;;;;5051419;28;20221;-58
2022/03/12 02:10:52;;;;;;;15.63;13.85;;;4.80;47.70;;;;;;5052650;28;20208;-58
2022/03/12 02:13:19;;;;;;;15.80;13.73;;;4.90;47.90;;;;;;5052919;28;20216;-58
2022/03/12 02:15:46;;;;;;;15.13;13.50;;;4.90;48.00;;;;;;5052980;28;20220;-58
2022/03/12 02:18:15;;;;;;;15.60;14.13;;;4.90;48.30;;;;;;5052853;28;20207;-58
2022/03/12 02:20:42;;;;;;;15.15;13.55;;;4.90;48.30;;;;;;5052941;28;20240;-58
2022/03/12 02:23:10;;;;;;;15.40;13.90;;;4.80;49.40;;;;;;5051323;28;20245;-58
2022/03/12 02:25:38;;;;;;;17.30;13.80;;;4.90;49.90;;;;;;5053082;28;20575;-58
2022/03/12 02:28:17;;;;;;;18.23;13.90;;;4.90;50.50;;;;;;5052663;28;20207;-58
2022/03/12 02:30:51;;;;;;;18.17;13.63;;;4.80;50.60;;;;;;5052717;28;20205;-58
2022/03/12 02:33:28;;;;;;;15.40;13.90;;;4.60;49.80;;;;;;5052945;28;20255;-58
2022/03/12 02:35:56;;;;;;;16.08;14.23;;;4.60;49.60;;;;;;5052690;28;20247;-58
2022/03/12 02:38:24;;;;;;;15.35;13.60;;;4.80;49.20;;;;;;5051539;28;20209;-58
2022/03/12 02:40:52;;;;;;;16.45;13.63;;;5.00;48.50;;;;;;5052631;28;20213;-58
2022/03/12 02:43:26;;;;;;;15.93;14.20;;;5.20;49.10;;;;;;5052432;28;20235;-58
2022/03/12 02:45:55;;;;;;;16.20;14.50;;;5.30;47.90;;;;;;5052424;28;20243;-58
2022/03/12 02:48:24;;;;;;;17.35;13.55;;;5.40;47.80;;;;;;5052456;28;20202;-58
2022/03/12 02:50:52;;;;;;;16.48;14.35;;;5.40;47.80;;;;;;5052347;28;20197;-58
2022/03/12 02:53:19;;;;;;;17.55;14.60;;;5.40;47.10;;;;;;5051019;28;20205;-58
2022/03/12 02:55:47;;;;;;;17.83;14.30;;;5.40;46.90;;;;;;5052419;28;20225;-58
2022/03/12 02:58:16;;;;;;;15.55;14.00;;;5.40;46.70;;;;;;5052169;28;20296;-58
2022/03/12 03:00:43;;;;;;;14.05;12.55;;;5.30;46.70;;;;;;5052344;28;20224;-58
2022/03/12 03:03:10;;;;;;;16.23;14.38;;;5.30;47.30;;;;;;5052162;28;20554;-58
2022/03/12 03:05:45;;;;;;;15.90;13.38;;;5.40;47.70;;;;;;5052264;28;20561;-58
2022/03/12 03:08:18;;;;;;;16.30;12.93;;;5.40;47.80;;;;;;5050612;28;20252;-58
2022/03/12 03:10:47;;;;;;;15.82;12.90;;;5.20;49.00;;;;;;5052247;28;20201;-58
2022/03/12 03:13:40;;;;;;;17.20;13.75;;;4.90;48.80;;;;;;5052114;28;20613;-58
2022/03/12 03:16:14;;;;;;;14.88;12.50;;;5.00;48.10;;;;;;5051955;28;20258;-58
2022/03/12 03:18:41;;;;;;;18.13;13.85;;;5.00;49.40;;;;;;5051973;28;20255;-58
2022/03/12 03:21:10;;;;;;;17.10;14.10;;;5.00;49.00;;;;;;5052395;28;20231;-58
2022/03/12 03:23:37;;;;;;;14.57;13.27;;;5.10;48.00;;;;;;5054596;28;20239;-58
2022/03/12 03:26:05;;;;;;;17.38;13.75;;;5.20;47.50;;;;;;5055783;28;20208;-58
2022/03/12 03:28:32;;;;;;;16.80;14.15;;;5.20;47.20;;;;;;5055603;28;20575;-58
2022/03/12 03:31:00;;;;;;;15.23;13.73;;;5.20;47.30;;;;;;5055608;28;20740;-58
2022/03/12 03:33:27;;;;;;;15.07;13.23;;;5.20;47.30;;;;;;5055858;28;20241;-58
2022/03/12 03:35:54;;;;;;;18.38;13.55;;;5.30;47.10;;;;;;5055579;28;20210;-58
2022/03/12 03:38:22;;;;;;;15.32;13.40;;;5.20;47.70;;;;;;5054233;28;20493;-58
2022/03/12 03:40:49;;;;;;;15.15;13.55;;;5.10;47.80;;;;;;5055587;28;20296;-58
2022/03/12 03:43:19;;;;;;;15.75;14.13;;;5.00;47.90;;;;;;5055376;28;20261;-58
2022/03/12 03:45:49;;;;;;;16.83;14.13;;;5.00;48.40;;;;;;5055385;28;20205;-58
2022/03/12 03:48:18;;;;;;;16.65;14.13;;;5.00;48.50;;;;;;5055389;28;20563;-58
2022/03/12 03:50:46;;;;;;;15.93;14.32;;;4.90;48.50;;;;;;5055468;28;20229;-57
2022/03/12 03:53:16;;;;;;;14.65;12.70;;;4.90;48.30;;;;;;5054331;28;20375;-57
2022/03/12 03:55:43;;;;;;;16.30;14.60;;;4.70;49.40;;;;;;5055501;28;20292;-57
2022/03/12 03:58:12;;;;;;;16.50;13.45;;;4.40;50.30;;;;;;5054898;28;20213;-58
2022/03/12 04:00:40;;;;;;;17.45;14.00;;;4.30;50.20;;;;;;5055359;28;20201;-58
2022/03/12 04:03:07;;;;;;;16.25;14.60;;;4.30;50.40;;;;;;5055449;28;20225;-58
2022/03/12 04:05:37;;;;;;;16.92;14.90;;;4.20;50.70;;;;;;5055207;28;20635;-58
2022/03/12 04:08:06;;;;;;;16.45;13.85;;;4.30;50.90;;;;;;5053765;28;20225;-57
2022/03/12 04:10:33;;;;;;;15.45;13.95;;;4.20;51.30;;;;;;5054987;28;20209;-57
2022/03/12 04:13:00;;;;;;;17.17;13.95;;;4.20;51.20;;;;;;5054944;28;20541;-57
2022/03/12 04:15:27;;;;;;;14.45;12.90;;;4.10;51.80;;;;;;5055214;28;20211;-57
2022/03/12 04:17:54;;;;;;;15.52;13.40;;;3.90;52.50;;;;;;5055239;28;20300;-57
2022/03/12 04:20:23;;;;;;;14.20;12.70;;;3.70;52.70;;;;;;5055177;28;20205;-57
2022/03/12 04:22:52;;;;;;;16.20;14.38;;;3.60;53.30;;;;;;5053524;28;20233;-57
2022/03/12 04:25:20;;;;;;;17.27;13.98;;;3.50;53.70;;;;;;5054858;28;20295;-58
2022/03/12 04:27:47;;;;;;;15.93;13.70;;;3.30;54.30;;;;;;5054733;28;20501;-57
2022/03/12 04:30:15;;;;;;;15.98;13.43;;;3.20;54.40;;;;;;5054667;28;20233;-57
2022/03/12 04:32:43;;;;;;;15.98;14.23;;;3.20;54.60;;;;;;5054209;28;20748;-57
2022/03/12 04:35:11;;;;;;;18.00;14.07;;;3.30;54.70;;;;;;5054860;28;20566;-58
2022/03/12 04:37:39;;;;;;;16.98;13.82;;;3.30;54.60;;;;;;5053373;28;20297;-57
2022/03/12 04:40:10;;;;;;;15.98;14.25;;;3.40;54.40;;;;;;5054659;28;20227;-57
2022/03/12 04:42:42;;;;;;;15.82;13.40;;;3.50;54.00;;;;;;5054382;28;20616;-57
2022/03/12 04:45:11;;;;;;;18.55;13.57;;;3.60;53.90;;;;;;5054497;28;20237;-58
2022/03/12 04:47:39;;;;;;;16.40;14.50;;;3.60;53.80;;;;;;5054495;28;20237;-57
2022/03/12 04:50:07;;;;;;;15.50;11.82;;;3.50;53.80;;;;;;5054319;28;20608;-57
2022/03/12 04:52:34;;;;;;;18.52;14.10;;;3.50;53.90;;;;;;5052961;28;20241;-57
2022/03/12 04:55:10;;;;;;;14.98;13.48;;;3.40;53.80;;;;;;5054330;28;20217;-58
2022/03/12 04:57:37;;;;;;;17.40;13.60;;;3.50;53.20;;;;;;5054073;28;20251;-58
2022/03/12 05:00:05;;;;;;;13.93;12.63;;;3.80;52.00;;;;;;5054107;28;20656;-58
2022/03/12 05:02:32;;;;;;;14.90;13.25;;;3.90;51.10;;;;;;5054165;28;20209;-58
2022/03/12 05:04:59;;;;;;;13.98;12.38;;;3.90;51.20;;;;;;5053893;28;20727;-58
2022/03/12 05:07:26;;;;;;;14.25;12.70;;;3.80;51.50;;;;;;5052659;28;20225;-57
2022/03/12 05:09:53;;;;;;;15.15;11.82;;;3.60;52.00;;;;;;5053982;28;20252;-57
2022/03/12 05:12:24;;;;;;;19.85;13.23;;;3.50;52.50;;;;;;5053977;28;20288;-57
2022/03/12 05:14:54;;;;;;;15.82;13.13;;;3.50;52.80;;;;;;5053811;28;20205;-58
2022/03/12 05:17:26;;;;;;;15.75;14.15;;;3.60;52.30;;;;;;5053867;28;20543;-58
2022/03/12 05:19:53;;;;;;;14.57;12.57;;;3.80;51.20;;;;;;5053866;28;20209;-58
2022/03/12 05:22:20;;;;;;;14.57;11.57;;;4.00;50.10;;;;;;5052266;28;20316;-58
2022/03/12 05:24:47;;;;;;;13.10;11.75;;;4.00;49.60;;;;;;5053682;28;20235;-57
2022/03/12 05:27:15;;;;;;;14.45;12.95;;;4.00;49.50;;;;;;5053759;28;20197;-57
2022/03/12 05:29:45;;;;;;;15.20;13.25;;;4.00;49.60;;;;;;5053533;28;20205;-57
2022/03/12 05:32:12;;;;;;;15.52;12.68;;;4.00;49.50;;;;;;5053478;28;20244;-57
2022/03/12 05:34:39;;;;;;;14.10;12.80;;;4.00;49.30;;;;;;5053649;28;20206;-57
2022/03/12 05:37:09;;;;;;;19.02;13.00;;;4.00;49.40;;;;;;5052143;28;20205;-57
2022/03/12 05:39:37;;;;;;;16.73;13.82;;;3.90;50.00;;;;;;5053463;28;20202;-57
2022/03/12 05:42:05;;;;;;;14.57;12.98;;;3.80;49.90;;;;;;5053304;28;20205;-57
2022/03/12 05:44:34;;;;;;;15.20;13.38;;;3.80;49.90;;;;;;5052192;28;20323;-57
2022/03/12 05:47:02;;;;;;;16.00;13.10;;;3.90;49.70;;;;;;5053321;28;20206;-57
2022/03/12 05:49:29;;;;;;;16.50;14.02;;;4.00;49.60;;;;;;5053323;28;20207;-57
2022/03/12 05:51:57;;;;;;;12.80;11.45;;;3.80;50.10;;;;;;5052037;28;20205;-57
2022/03/12 05:54:25;;;;;;;15.65;14.05;;;3.50;51.00;;;;;;5053122;28;20292;-57
2022/03/12 05:56:51;;;;;;;15.57;13.82;;;3.30;51.90;;;;;;5053207;28;20312;-57
2022/03/12 05:59:18;;;;;;;12.75;11.45;;;3.40;51.90;;;;;;5052875;28;20571;-57
2022/03/12 06:01:45;;;;;;;16.85;13.48;;;3.80;51.40;;;;;;5053021;28;20229;-57
2022/03/12 06:04:22;;;;;;;15.05;13.55;;;4.00;51.10;;;;;;5052913;28;20320;-57
2022/03/12 06:06:49;;;;;;;15.07;13.57;;;3.80;52.10;;;;;;5051670;28;20221;-57
2022/03/12 06:09:16;;;;;;;15.70;14.02;;;3.60;52.20;;;;;;5053039;28;20639;-57
2022/03/12 06:11:43;;;;;;;14.63;12.60;;;3.40;52.60;;;;;;5052800;28;20225;-57
2022/03/12 06:14:16;;;;;;;15.20;13.60;;;3.20;53.00;;;;;;5052716;28;20288;-57
2022/03/12 06:16:48;;;;;;;16.42;13.32;;;3.20;53.00;;;;;;5052870;28;20206;-57
2022/03/12 06:19:19;;;;;;;19.60;13.02;;;3.20;53.30;;;;;;5052896;28;20228;-57
2022/03/12 06:21:46;;;;;;;14.10;12.57;;;3.10;53.80;;;;;;5051262;28;20260;-57
2022/03/12 06:24:14;;;;;;;16.88;13.98;;;3.10;54.50;;;;;;5052540;28;20233;-57
2022/03/12 06:26:44;;;;;;;13.98;12.57;;;3.10;54.80;;;;;;5052756;28;20201;-57
2022/03/12 06:29:13;;;;;;;13.93;12.52;;;3.10;54.70;;;;;;5052557;28;20637;-58
2022/03/12 06:31:41;;;;;;;15.27;13.77;;;3.10;54.80;;;;;;5052603;28;20668;-58
2022/03/12 06:34:12;;;;;;;18.60;15.98;;;3.10;54.70;;;;;;5052634;28;20201;-58
2022/03/12 06:36:42;;;;;;;15.82;14.02;;;3.10;53.80;;;;;;5052207;28;20205;-58
2022/03/12 06:39:09;;;;;;;13.63;12.15;;;3.10;54.10;;;;;;5052646;28;20263;-57
2022/03/12 06:41:37;;;;;;;15.82;13.52;;;3.20;54.10;;;;;;5052519;28;20212;-57
2022/03/12 06:44:04;;;;;;;14.18;12.70;;;3.20;54.50;;;;;;5052236;28;20235;-57
2022/03/12 06:46:32;;;;;;;14.52;13.13;;;3.20;54.90;;;;;;5052537;28;20292;-57
2022/03/12 06:48:59;;;;;;;14.05;12.65;;;3.20;54.60;;;;;;5052557;28;20614;-57
2022/03/12 06:51:26;;;;;;;17.48;13.88;;;3.20;54.00;;;;;;5052252;28;20653;-57
2022/03/12 06:53:55;;;;;;;15.27;13.18;;;3.20;54.50;;;;;;5051054;28;20204;-57
2022/03/12 06:56:22;;;;;;;15.10;12.95;;;3.20;53.80;;;;;;5055035;28;20205;-58
2022/03/12 06:58:49;;;;;;;18.20;14.45;;;3.30;54.10;;;;;;5056353;28;20233;-58
2022/03/12 07:01:16;;;;;;;15.20;12.00;;;3.30;53.50;;;;;;5056410;28;20245;-57
2022/03/12 07:03:43;;;;;;;17.48;13.35;;;3.50;52.80;;;;;;5056314;28;20243;-58
2022/03/12 07:06:10;;;;;;;13.68;12.25;;;3.70;52.20;;;;;;5056135;28;20260;-58
2022/03/12 07:08:37;;;;;;;14.15;12.85;;;3.90;51.00;;;;;;5055070;28;20255;-58
2022/03/12 07:11:07;;;;;;;12.48;11.25;;;4.10;50.20;;;;;;5056277;28;20201;-58
2022/03/12 07:13:35;;;;;;;15.90;12.32;;;4.20;49.50;;;;;;5056000;28;20197;-58
2022/03/12 07:16:03;;;;;;;15.35;13.65;;;4.30;49.10;;;;;;5056179;28;20210;-58
2022/03/12 07:18:29;;;;;;;14.90;13.35;;;4.30;48.80;;;;;;5056062;28;20204;-58
2022/03/12 07:20:56;;;;;;;14.75;13.35;;;4.20;49.70;;;;;;5056061;28;20288;-58
2022/03/12 07:23:23;;;;;;;14.38;13.00;;;4.10;49.90;;;;;;5054614;28;20237;-58
2022/03/12 07:25:52;;;;;;;15.45;13.85;;;4.20;49.90;;;;;;5055911;28;20255;-57
2022/03/12 07:28:20;;;;;;;15.00;13.35;;;4.20;50.40;;;;;;5055639;28;20205;-58
2022/03/12 07:30:47;;;;;;;14.77;13.38;;;4.20;51.50;;;;;;5055842;28;20237;-57
2022/03/12 07:33:14;;;;;;;15.38;13.82;;;4.30;52.00;;;;;;5055540;28;20202;-57
2022/03/12 07:35:41;;;;;;;15.60;13.25;;;4.70;51.60;;;;;;5055792;28;20292;-58
2022/03/12 07:38:08;;;;;;;16.55;13.90;;;5.00;50.90;;;;;;5054481;28;20616;-57
2022/03/12 07:40:35;;;;;;;15.50;13.90;;;5.30;50.70;;;;;;5055639;28;20403;-58
2022/03/12 07:43:03;;;;;;;14.98;13.48;;;5.50;50.80;;;;;;5055568;28;20213;-58
2022/03/12 07:45:31;;;;;;;14.75;13.13;;;5.80;50.20;;;;;;5055422;28;20315;-57
2022/03/12 07:47:58;;;;;;;15.32;12.73;;;5.80;49.70;;;;;;5055450;28;20710;-57
2022/03/12 07:50:26;;;;;;;18.33;14.07;;;5.80;48.90;;;;;;5055445;28;20292;-58
2022/03/12 07:52:53;;;;;;;16.10;14.43;;;5.90;48.80;;;;;;5054061;28;20205;-57
2022/03/12 07:55:21;;;;;;;16.85;11.45;;;6.00;48.90;;;;;;5055371;28;20198;-57
2022/03/12 07:57:48;;;;;;;14.32;12.80;;;6.10;49.10;;;;;;5055256;28;20212;-58
2022/03/12 08:00:17;;;;;;;16.13;14.50;;;6.40;49.40;;;;;;5054850;28;20732;-57
2022/03/12 08:02:47;;;;;;;17.23;14.68;;;6.60;49.20;;;;;;5055084;28;20249;-58
2022/03/12 08:05:16;;;;;;;15.85;14.07;;;6.80;47.80;;;;;;5055066;28;20324;-57
2022/03/12 08:07:43;;;;;;;18.15;14.85;;;6.90;47.10;;;;;;5053058;28;20206;-57
2022/03/12 08:10:10;;;;;;;15.60;13.15;;;6.80;47.10;;;;;;5055167;28;20232;-58
2022/03/12 08:12:38;;;;;;;16.02;14.43;;;7.00;47.20;;;;;;5054838;28;20211;-58
2022/03/12 08:15:08;;;;;;;17.67;15.60;;;7.00;46.80;;;;;;5054740;28;20197;-58
2022/03/12 08:17:35;;;;;;;15.45;13.77;;;7.00;46.80;;;;;;5055103;28;20205;-58
2022/03/12 08:20:07;;;;;;;16.40;14.20;;;7.10;46.20;;;;;;5054992;28;20205;-58
2022/03/12 08:22:35;;;;;;;16.95;13.95;;;7.20;46.30;;;;;;5053398;28;20233;-58
2022/03/12 08:25:02;;;;;;;17.42;15.52;;;7.20;45.80;;;;;;5054642;28;20259;-57
2022/03/12 08:27:29;;;;;;;18.98;13.25;;;7.30;46.30;;;;;;5054743;28;20742;-58
2022/03/12 08:29:56;;;;;;;15.55;14.05;;;7.30;46.50;;;;;;5054518;28;20209;-58
2022/03/12 08:32:23;;;;;;;16.58;14.88;;;7.30;46.40;;;;;;5054615;28;20653;-58
2022/03/12 08:34:50;;;;;;;17.15;15.30;;;7.30;46.60;;;;;;5054671;28;20263;-58
2022/03/12 08:37:18;;;;;;;17.17;14.05;;;7.30;46.40;;;;;;5053274;28;20287;-58
2022/03/12 08:39:45;;;;;;;18.90;15.98;;;7.30;46.80;;;;;;5054439;28;20300;-58
2022/03/12 08:42:12;;;;;;;18.38;15.82;;;7.40;46.60;;;;;;5054653;28;20251;-58
2022/03/12 08:44:39;;;;;;;19.52;15.88;;;7.50;46.10;;;;;;5054388;28;20770;-58
2022/03/12 08:47:07;;;;;;;17.52;14.40;;;7.60;46.40;;;;;;5054460;28;20698;-58
2022/03/12 08:49:35;;;;;;;19.20;17.00;;;7.60;46.70;;;;;;5054477;28;20205;-58
2022/03/12 08:52:02;;;;;;;20.75;16.63;;;7.60;45.80;;;;;;5053261;28;20206;-58
2022/03/12 08:54:30;;;;;;;20.50;15.95;;;7.60;45.70;;;;;;5054074;28;20296;-58
2022/03/12 08:56:57;;;;;;;18.63;16.33;;;7.70;45.90;;;;;;5054198;28;20201;-58
2022/03/12 08:59:24;;;;;;;18.40;16.38;;;7.80;45.50;;;;;;5054041;28;20300;-58
2022/03/12 09:01:51;;;;;;;21.83;16.27;;;7.90;45.10;;;;;;5053968;28;20300;-58
2022/03/12 09:04:19;;;;;;;18.42;16.55;;;7.90;45.40;;;;;;5054122;28;20288;-58
2022/03/12 09:06:47;;;;;;;18.25;16.02;;;7.90;44.80;;;;;;5052563;28;20237;-58
2022/03/12 09:09:14;;;;;;;19.50;16.95;;;8.00;45.10;;;;;;5053970;28;20672;-58
2022/03/12 09:11:42;;;;;;;18.27;16.17;;;8.20;45.60;;;;;;5053979;28;20208;-58
2022/03/12 09:14:10;;;;;;;22.00;17.75;;;8.40;44.70;;;;;;5053541;28;20570;-57
2022/03/12 09:16:37;;;;;;;20.42;17.80;;;8.60;45.20;;;;;;5053896;28;20213;-57
2022/03/12 09:19:04;;;;;;;21.25;15.15;;;8.80;44.60;;;;;;5053716;28;20198;-57
2022/03/12 09:21:31;;;;;;;17.13;14.38;;;9.10;44.10;;;;;;5053484;28;20325;-58
2022/03/12 09:23:58;;;;;;;19.10;16.77;;;9.10;43.30;;;;;;5052396;28;20300;-58
2022/03/12 09:26:25;;;;;;;19.77;17.48;;;9.00;43.10;;;;;;5053567;28;20229;-58
2022/03/12 09:28:54;;;;;;;20.30;15.18;;;9.20;43.50;;;;;;5053356;28;20209;-58
2022/03/12 09:31:22;;;;;;;18.52;16.48;;;9.30;43.30;;;;;;5053586;28;20236;-58
2022/03/12 09:33:49;;;;;;;20.38;16.90;;;9.50;43.40;;;;;;5053391;28;20684;-58
2022/03/12 09:36:16;;;;;;;22.10;16.35;;;9.60;42.40;;;;;;5053177;28;20296;-58
2022/03/12 09:38:43;;;;;;;20.58;15.40;;;9.70;43.20;;;;;;5052200;28;20225;-58
2022/03/12 09:41:11;;;;;;;18.33;16.27;;;9.90;43.20;;;;;;5053378;28;20205;-58
2022/03/12 09:43:38;;;;;;;20.90;17.80;;;10.10;42.60;;;;;;5053275;28;20286;-58
2022/03/12 09:46:06;;;;;;;20.67;17.55;;;10.40;43.60;;;;;;5053177;28;20299;-58
2022/03/12 09:48:33;;;;;;;22.27;18.13;;;10.70;43.40;;;;;;5053225;28;20694;-58
2022/03/12 09:51:00;;;;;;;20.85;17.80;;;10.90;42.20;;;;;;5053245;28;20292;-58
2022/03/12 09:53:27;;;;;;;19.77;17.75;;;11.10;43.00;;;;;;5051996;28;20274;-58
2022/03/12 09:55:54;;;;;;;20.63;17.60;;;11.20;42.50;;;;;;5053174;28;20197;-58
2022/03/12 09:58:20;;;;;;;23.42;16.40;;;11.30;41.80;;;;;;5052975;28;20578;-58
2022/03/12 10:00:48;;;;;;;20.38;16.75;;;11.30;41.80;;;;;;5052835;28;20551;-58
2022/03/12 10:03:16;;;;;;;18.85;16.60;;;11.40;41.30;;;;;;5052918;28;20208;-58
2022/03/12 10:05:43;;;;;;;21.30;18.95;;;11.50;41.00;;;;;;5052817;28;20568;-58
2022/03/12 10:08:10;;;;;;;21.15;17.67;;;11.60;41.80;;;;;;5051645;28;20208;-58
2022/03/12 10:10:37;;;;;;;21.50;18.67;;;11.80;41.50;;;;;;5052830;28;20244;-58
2022/03/12 10:13:04;;;;;;;23.73;17.77;;;11.90;41.30;;;;;;5052809;28;20664;-58
2022/03/12 10:15:31;;;;;;;19.27;16.80;;;12.00;41.20;;;;;;5052728;28;20201;-58
2022/03/12 10:17:59;;;;;;;19.55;17.48;;;12.20;41.50;;;;;;5052648;28;20672;-59
2022/03/12 10:20:28;;;;;;;21.05;18.75;;;12.30;41.80;;;;;;5052865;28;20205;-58
2022/03/12 10:22:55;;;;;;;24.50;19.60;;;12.50;41.50;;;;;;5051328;28;20302;-58
2022/03/12 10:25:22;;;;;;;19.15;16.33;;;12.60;40.40;;;;;;5052859;28;20303;-58
2022/03/12 10:27:50;;;;;;;22.83;17.45;;;12.50;41.50;;;;;;5052771;28;20210;-58
2022/03/12 10:30:17;;;;;;;23.35;17.02;;;12.70;41.10;;;;;;5051971;28;20205;-59
2022/03/12 10:32:46;;;;;;;18.67;16.25;;;12.70;41.70;;;;;;5052527;28;20300;-59
2022/03/12 10:35:14;;;;;;;20.63;16.98;;;12.80;41.30;;;;;;5052600;28;20209;-58
2022/03/12 10:37:43;;;;;;;19.98;17.90;;;12.80;41.80;;;;;;5051218;28;20205;-59
2022/03/12 10:40:12;;;;;;;18.88;16.88;;;13.00;42.20;;;;;;5052582;28;20211;-59
2022/03/12 10:42:46;;;;;;;20.40;17.38;;;13.30;41.90;;;;;;5052641;28;20201;-59
2022/03/12 10:45:15;;;;;;;21.15;17.55;;;13.40;40.30;;;;;;5052262;28;20284;-59
2022/03/12 10:47:44;;;;;;;20.98;17.45;;;13.40;41.70;;;;;;5052424;28;20572;-59
2022/03/12 10:50:15;;;;;;;24.20;18.67;;;13.50;41.00;;;;;;5052427;28;20208;-59
2022/03/12 10:52:47;;;;;;;23.83;19.48;;;13.60;40.80;;;;;;5051172;28;20201;-59
2022/03/12 10:55:19;;;;;;;19.65;17.65;;;13.40;39.20;;;;;;5052402;28;20562;-58
2022/03/12 10:58:01;;;;;;;20.88;18.77;;;13.60;40.70;;;;;;5052357;28;20585;-58
2022/03/12 11:00:30;;;;;;;18.10;16.17;;;13.80;40.20;;;;;;5052281;28;20205;-58
2022/03/12 11:02:59;;;;;;;20.27;18.13;;;14.00;40.60;;;;;;5052331;28;20205;-58
2022/03/12 11:05:27;;;;;;;21.13;18.13;;;14.20;41.20;;;;;;5052099;28;20673;-58
2022/03/12 11:08:16;;;;;;;21.70;17.85;;;14.50;40.60;;;;;;5051034;28;20625;-58
2022/03/12 11:10:54;;;;;;;19.73;17.55;;;14.70;39.50;;;;;;5052205;28;20208;-58
2022/03/12 11:13:34;;;;;;;19.80;16.90;;;14.70;39.90;;;;;;5052418;28;20292;-58
2022/03/12 11:16:18;;;;;;;19.02;16.65;;;14.70;39.90;;;;;;5051954;28;20259;-59
2022/03/12 11:19:10;;;;;;;20.70;18.60;;;14.90;39.90;;;;;;5052142;28;20201;-58
2022/03/12 11:21:39;;;;;;;20.40;18.27;;;15.20;40.10;;;;;;5051982;28;20249;-58
2022/03/12 11:24:15;;;;;;;18.93;16.70;;;15.60;39.90;;;;;;5051447;28;20209;-58
2022/03/12 11:26:47;;;;;;;22.57;20.23;;;16.50;39.70;;;;;;5051674;28;20495;-59
2022/03/12 11:29:15;;;;;;;20.30;18.30;;;17.50;37.00;;;;;;5061805;28;20451;-58
2022/03/12 11:31:48;;;;;;;21.73;19.27;;;18.80;33.90;;;;;;5072161;28;20534;-59
2022/03/12 11:34:19;;;;;;;21.27;19.10;;;20.10;34.20;;;;;;5072168;28;20987;-59
2022/03/12 11:36:47;;;;;;;20.87;18.77;;;21.10;32.20;;;;;;5070809;28;20802;-59
2022/03/12 11:39:20;;;;;;;20.50;18.50;;;21.80;29.50;;;;;;5071715;28;20453;-59
2022/03/12 11:42:02;;;;;;;21.57;19.47;;;21.70;30.90;;;;;;5071994;28;20948;-59
2022/03/12 11:44:30;;;;;;;18.97;17.03;;;22.50;32.00;;;;;;5075452;28;20447;-59
2022/03/12 11:46:57;;;;;;;21.07;19.00;;;23.60;30.30;;;;;;5075452;28;20584;-59
2022/03/12 11:49:25;;;;;;;18.57;16.87;;;24.70;29.20;;;;;;5075290;28;20492;-58
2022/03/12 11:51:52;;;;;;;19.07;17.27;;;25.20;27.00;;;;;;5074058;28;20514;-58
2022/03/12 11:54:21;;;;;;;19.90;17.90;;;24.60;28.10;;;;;;5075453;28;20486;-59
2022/03/12 11:56:47;;;;;;;19.57;17.67;;;24.20;28.30;;;;;;5075265;28;20891;-58
2022/03/12 11:59:14;;;;;;;18.53;16.63;;;24.10;29.00;;;;;;5075108;28;21040;-58
2022/03/12 12:01:41;;;;;;;19.33;17.53;;;24.20;28.90;;;;;;5075114;28;20462;-58
2022/03/12 12:04:08;;;;;;;17.43;15.83;;;24.50;28.40;;;;;;5074995;28;20467;-59
2022/03/12 12:06:36;;;;;;;17.80;16.10;;;24.90;28.20;;;;;;5075074;28;20585;-58
2022/03/12 12:09:03;;;;;;;16.13;14.70;;;25.30;26.50;;;;;;5074067;28;20853;-59
2022/03/12 12:11:36;;;;;;;16.20;14.60;;;24.80;28.10;;;;;;5075073;28;20542;-59
2022/03/12 12:14:03;;;;;;;16.60;15.10;;;24.70;28.30;;;;;;5074835;28;20493;-58
2022/03/12 12:16:30;;;;;;;18.17;16.50;;;24.50;28.70;;;;;;5074854;28;20450;-58
2022/03/12 12:18:57;;;;;;;16.23;14.73;;;24.30;28.70;;;;;;5074602;28;20526;-58
2022/03/12 12:21:24;;;;;;;15.77;14.33;;;24.00;28.60;;;;;;5074544;28;20865;-58
2022/03/12 12:23:51;;;;;;;14.40;13.20;;;23.50;28.90;;;;;;5073380;28;20530;-58
2022/03/12 12:26:20;;;;;;;15.40;14.20;;;22.90;30.20;;;;;;5074536;28;20513;-58
2022/03/12 12:28:50;;;;;;;14.37;13.07;;;22.40;31.00;;;;;;5074641;28;20524;-58
2022/03/12 12:31:24;;;;;;;14.93;13.73;;;21.90;33.00;;;;;;5074435;28;20457;-58
2022/03/12 12:33:52;;;;;;;13.77;12.77;;;21.30;32.40;;;;;;5074697;28;20935;-58
2022/03/12 12:36:20;;;;;;;14.97;13.57;;;20.80;33.20;;;;;;5074735;28;20537;-58
2022/03/12 12:39:08;;;;;;;16.57;15.10;;;20.60;33.60;;;;;;5073316;28;20451;-58
2022/03/12 12:41:52;;;;;;;17.40;15.70;;;20.30;33.30;;;;;;5074539;28;20860;-58
2022/03/12 12:44:41;;;;;;;17.53;15.93;;;19.70;33.10;;;;;;5074495;28;20447;-58
2022/03/12 12:47:10;;;;;;;16.43;14.83;;;19.50;33.70;;;;;;5074304;28;20495;-58